sensor_id;sensor_type;location;lat;lon;timestamp;P1;durP1;ratioP1;P2;durP2;ratioP2
68176;SDS011;56478;50.982;7.032;2023-08-17T00:02:13;9.05;;;5.68;;
68176;SDS011;56478;50.982;7.032;2023-08-17T00:04:39;7.28;;;5.30;;
68176;SDS011;56478;50.982;7.032;2023-08-17T00:07:05;6.65;;;5.10;;
68176;SDS011;56478;50.982;7.032;2023-08-17T00:09:31;6.75;;;5.40;;
68176;SDS011;56478;50.982;7.032;2023-08-17T00:11:57;12.13;;;5.60;;
68176;SDS011;56478;50.982;7.032;2023-08-17T00:14:23;7.97;;;5.40;;
68176;SDS011;56478;50.982;7.032;2023-08-17T00:16:49;6.05;;;5.00;;
68176;SDS011;56478;50.982;7.032;2023-08-17T00:19:15;5.70;;;4.90;;
68176;SDS011;56478;50.982;7.032;2023-08-17T00:21:41;7.32;;;4.70;;
68176;SDS011;56478;50.982;7.032;2023-08-17T00:24:06;7.93;;;5.15;;
68176;SDS011;56478;50.982;7.032;2023-08-17T00:26:32;5.82;;;4.97;;
68176;SDS011;56478;50.982;7.032;2023-08-17T00:28:58;7.38;;;4.80;;
68176;SDS011;56478;50.982;7.032;2023-08-17T00:31:23;7.15;;;4.68;;
68176;SDS011;56478;50.982;7.032;2023-08-17T00:33:49;5.80;;;4.93;;
68176;SDS011;56478;50.982;7.032;2023-08-17T00:36:14;5.40;;;4.90;;
68176;SDS011;56478;50.982;7.032;2023-08-17T00:38:40;6.25;;;5.20;;
68176;SDS011;56478;50.982;7.032;2023-08-17T00:41:05;7.43;;;4.70;;
68176;SDS011;56478;50.982;7.032;2023-08-17T00:43:31;8.50;;;5.30;;
68176;SDS011;56478;50.982;7.032;2023-08-17T00:45:57;9.65;;;5.10;;
68176;SDS011;56478;50.982;7.032;2023-08-17T00:48:23;5.75;;;4.80;;
68176;SDS011;56478;50.982;7.032;2023-08-17T00:50:49;5.68;;;4.93;;
68176;SDS011;56478;50.982;7.032;2023-08-17T00:53:17;8.98;;;5.30;;
68176;SDS011;56478;50.982;7.032;2023-08-17T00:55:44;9.48;;;5.38;;
68176;SDS011;56478;50.982;7.032;2023-08-17T00:58:09;8.30;;;5.78;;
68176;SDS011;56478;50.982;7.032;2023-08-17T01:00:35;11.98;;;5.47;;
68176;SDS011;56478;50.982;7.032;2023-08-17T01:03:00;8.85;;;5.50;;
68176;SDS011;56478;50.982;7.032;2023-08-17T01:05:26;7.05;;;5.38;;
68176;SDS011;56478;50.982;7.032;2023-08-17T01:07:51;6.88;;;5.57;;
68176;SDS011;56478;50.982;7.032;2023-08-17T01:10:17;8.27;;;5.32;;
68176;SDS011;56478;50.982;7.032;2023-08-17T01:15:19;8.70;;;5.55;;
68176;SDS011;56478;50.982;7.032;2023-08-17T01:17:50;6.65;;;5.63;;
68176;SDS011;56478;50.982;7.032;2023-08-17T01:20:22;7.80;;;5.18;;
68176;SDS011;56478;50.982;7.032;2023-08-17T01:22:49;7.72;;;5.10;;
68176;SDS011;56478;50.982;7.032;2023-08-17T01:25:17;6.28;;;5.40;;
68176;SDS011;56478;50.982;7.032;2023-08-17T01:27:45;5.95;;;5.25;;
68176;SDS011;56478;50.982;7.032;2023-08-17T01:30:12;9.73;;;5.00;;
68176;SDS011;56478;50.982;7.032;2023-08-17T01:32:48;5.95;;;4.80;;
68176;SDS011;56478;50.982;7.032;2023-08-17T01:35:30;6.45;;;4.57;;
68176;SDS011;56478;50.982;7.032;2023-08-17T01:37:58;5.30;;;4.75;;
68176;SDS011;56478;50.982;7.032;2023-08-17T01:40:28;6.78;;;4.82;;
68176;SDS011;56478;50.982;7.032;2023-08-17T01:42:57;4.95;;;4.10;;
68176;SDS011;56478;50.982;7.032;2023-08-17T01:45:24;5.28;;;4.50;;
68176;SDS011;56478;50.982;7.032;2023-08-17T01:47:50;6.22;;;4.32;;
68176;SDS011;56478;50.982;7.032;2023-08-17T01:50:16;6.35;;;4.82;;
68176;SDS011;56478;50.982;7.032;2023-08-17T01:52:41;7.97;;;4.55;;
68176;SDS011;56478;50.982;7.032;2023-08-17T01:55:07;4.55;;;4.15;;
68176;SDS011;56478;50.982;7.032;2023-08-17T01:57:33;6.82;;;4.50;;
68176;SDS011;56478;50.982;7.032;2023-08-17T02:00:00;7.50;;;4.43;;
68176;SDS011;56478;50.982;7.032;2023-08-17T02:02:26;4.50;;;4.03;;
68176;SDS011;56478;50.982;7.032;2023-08-17T02:04:52;5.50;;;4.03;;
68176;SDS011;56478;50.982;7.032;2023-08-17T02:07:17;4.30;;;3.95;;
68176;SDS011;56478;50.982;7.032;2023-08-17T02:09:43;7.90;;;4.55;;
68176;SDS011;56478;50.982;7.032;2023-08-17T02:12:08;4.60;;;4.20;;
68176;SDS011;56478;50.982;7.032;2023-08-17T02:14:34;6.60;;;4.47;;
68176;SDS011;56478;50.982;7.032;2023-08-17T02:16:59;5.88;;;4.22;;
68176;SDS011;56478;50.982;7.032;2023-08-17T02:19:25;5.65;;;4.57;;
68176;SDS011;56478;50.982;7.032;2023-08-17T02:21:51;5.32;;;4.30;;
68176;SDS011;56478;50.982;7.032;2023-08-17T02:24:16;5.00;;;3.92;;
68176;SDS011;56478;50.982;7.032;2023-08-17T02:26:42;6.15;;;4.28;;
68176;SDS011;56478;50.982;7.032;2023-08-17T02:29:07;6.35;;;3.50;;
68176;SDS011;56478;50.982;7.032;2023-08-17T02:31:33;4.75;;;3.80;;
68176;SDS011;56478;50.982;7.032;2023-08-17T02:33:58;4.35;;;3.95;;
68176;SDS011;56478;50.982;7.032;2023-08-17T02:36:30;4.47;;;4.00;;
68176;SDS011;56478;50.982;7.032;2023-08-17T02:38:56;6.90;;;3.72;;
68176;SDS011;56478;50.982;7.032;2023-08-17T02:41:21;9.95;;;4.10;;
68176;SDS011;56478;50.982;7.032;2023-08-17T02:43:47;4.15;;;3.72;;
68176;SDS011;56478;50.982;7.032;2023-08-17T02:46:12;5.53;;;3.83;;
68176;SDS011;56478;50.982;7.032;2023-08-17T02:48:38;5.78;;;3.80;;
68176;SDS011;56478;50.982;7.032;2023-08-17T02:51:03;5.00;;;3.75;;
68176;SDS011;56478;50.982;7.032;2023-08-17T02:53:29;5.00;;;4.10;;
68176;SDS011;56478;50.982;7.032;2023-08-17T02:55:54;4.32;;;3.92;;
68176;SDS011;56478;50.982;7.032;2023-08-17T02:58:20;6.18;;;4.18;;
68176;SDS011;56478;50.982;7.032;2023-08-17T03:00:46;6.32;;;3.67;;
68176;SDS011;56478;50.982;7.032;2023-08-17T03:03:11;4.57;;;4.07;;
68176;SDS011;56478;50.982;7.032;2023-08-17T03:05:37;4.10;;;3.70;;
68176;SDS011;56478;50.982;7.032;2023-08-17T03:08:02;4.75;;;4.30;;
68176;SDS011;56478;50.982;7.032;2023-08-17T03:10:28;4.55;;;4.15;;
68176;SDS011;56478;50.982;7.032;2023-08-17T03:12:54;4.65;;;4.22;;
68176;SDS011;56478;50.982;7.032;2023-08-17T03:15:20;4.05;;;3.70;;
68176;SDS011;56478;50.982;7.032;2023-08-17T03:17:45;5.15;;;4.13;;
68176;SDS011;56478;50.982;7.032;2023-08-17T03:20:11;4.30;;;3.90;;
68176;SDS011;56478;50.982;7.032;2023-08-17T03:22:36;6.95;;;3.78;;
68176;SDS011;56478;50.982;7.032;2023-08-17T03:25:02;4.20;;;3.80;;
68176;SDS011;56478;50.982;7.032;2023-08-17T03:27:28;4.65;;;4.18;;
68176;SDS011;56478;50.982;7.032;2023-08-17T03:29:54;7.35;;;4.00;;
68176;SDS011;56478;50.982;7.032;2023-08-17T03:32:19;6.03;;;4.30;;
68176;SDS011;56478;50.982;7.032;2023-08-17T03:34:45;3.97;;;3.65;;
68176;SDS011;56478;50.982;7.032;2023-08-17T03:37:11;7.97;;;3.80;;
68176;SDS011;56478;50.982;7.032;2023-08-17T03:39:36;3.92;;;3.50;;
68176;SDS011;56478;50.982;7.032;2023-08-17T03:42:02;3.95;;;3.65;;
68176;SDS011;56478;50.982;7.032;2023-08-17T03:44:28;4.55;;;4.00;;
68176;SDS011;56478;50.982;7.032;2023-08-17T03:46:53;3.97;;;3.67;;
68176;SDS011;56478;50.982;7.032;2023-08-17T03:49:19;6.07;;;4.20;;
68176;SDS011;56478;50.982;7.032;2023-08-17T03:51:44;4.65;;;4.18;;
68176;SDS011;56478;50.982;7.032;2023-08-17T03:54:11;4.22;;;3.80;;
68176;SDS011;56478;50.982;7.032;2023-08-17T03:56:37;4.10;;;3.70;;
68176;SDS011;56478;50.982;7.032;2023-08-17T03:59:03;3.70;;;3.40;;
68176;SDS011;56478;50.982;7.032;2023-08-17T04:01:29;6.85;;;3.83;;
68176;SDS011;56478;50.982;7.032;2023-08-17T04:03:54;7.30;;;3.90;;
68176;SDS011;56478;50.982;7.032;2023-08-17T04:06:20;5.95;;;4.20;;
68176;SDS011;56478;50.982;7.032;2023-08-17T04:08:46;4.30;;;3.90;;
68176;SDS011;56478;50.982;7.032;2023-08-17T04:11:11;4.82;;;4.30;;
68176;SDS011;56478;50.982;7.032;2023-08-17T04:13:37;4.50;;;4.10;;
68176;SDS011;56478;50.982;7.032;2023-08-17T04:16:02;4.40;;;3.58;;
68176;SDS011;56478;50.982;7.032;2023-08-17T04:18:28;4.63;;;4.20;;
68176;SDS011;56478;50.982;7.032;2023-08-17T04:20:54;4.78;;;4.30;;
68176;SDS011;56478;50.982;7.032;2023-08-17T04:23:19;7.75;;;4.60;;
68176;SDS011;56478;50.982;7.032;2023-08-17T04:25:46;5.60;;;4.40;;
68176;SDS011;56478;50.982;7.032;2023-08-17T04:28:12;4.28;;;3.70;;
68176;SDS011;56478;50.982;7.032;2023-08-17T04:30:37;5.55;;;4.43;;
68176;SDS011;56478;50.982;7.032;2023-08-17T04:33:03;7.00;;;3.78;;
68176;SDS011;56478;50.982;7.032;2023-08-17T04:35:29;5.35;;;4.00;;
68176;SDS011;56478;50.982;7.032;2023-08-17T04:37:55;4.82;;;3.90;;
68176;SDS011;56478;50.982;7.032;2023-08-17T04:40:20;4.55;;;4.13;;
68176;SDS011;56478;50.982;7.032;2023-08-17T04:42:46;6.18;;;3.95;;
68176;SDS011;56478;50.982;7.032;2023-08-17T04:45:12;5.40;;;4.22;;
68176;SDS011;56478;50.982;7.032;2023-08-17T04:47:38;6.78;;;4.53;;
68176;SDS011;56478;50.982;7.032;2023-08-17T04:50:04;6.80;;;4.40;;
68176;SDS011;56478;50.982;7.032;2023-08-17T04:52:31;9.55;;;4.30;;
68176;SDS011;56478;50.982;7.032;2023-08-17T04:54:56;4.47;;;4.13;;
68176;SDS011;56478;50.982;7.032;2023-08-17T04:57:22;5.22;;;4.55;;
68176;SDS011;56478;50.982;7.032;2023-08-17T04:59:48;4.43;;;4.13;;
68176;SDS011;56478;50.982;7.032;2023-08-17T05:02:13;4.18;;;3.88;;
68176;SDS011;56478;50.982;7.032;2023-08-17T05:04:39;5.05;;;4.05;;
68176;SDS011;56478;50.982;7.032;2023-08-17T05:07:05;9.23;;;5.05;;
68176;SDS011;56478;50.982;7.032;2023-08-17T05:09:31;6.45;;;4.40;;
68176;SDS011;56478;50.982;7.032;2023-08-17T05:11:56;7.05;;;4.50;;
68176;SDS011;56478;50.982;7.032;2023-08-17T05:14:22;4.50;;;4.15;;
68176;SDS011;56478;50.982;7.032;2023-08-17T05:16:48;6.90;;;4.43;;
68176;SDS011;56478;50.982;7.032;2023-08-17T05:19:14;4.78;;;4.38;;
68176;SDS011;56478;50.982;7.032;2023-08-17T05:21:40;4.45;;;4.15;;
68176;SDS011;56478;50.982;7.032;2023-08-17T05:24:06;7.03;;;4.80;;
68176;SDS011;56478;50.982;7.032;2023-08-17T05:26:31;4.78;;;4.30;;
68176;SDS011;56478;50.982;7.032;2023-08-17T05:28:57;6.13;;;3.80;;
68176;SDS011;56478;50.982;7.032;2023-08-17T05:31:23;5.05;;;4.65;;
68176;SDS011;56478;50.982;7.032;2023-08-17T05:33:48;4.75;;;4.32;;
68176;SDS011;56478;50.982;7.032;2023-08-17T05:36:14;5.03;;;4.50;;
68176;SDS011;56478;50.982;7.032;2023-08-17T05:38:40;4.80;;;4.30;;
68176;SDS011;56478;50.982;7.032;2023-08-17T05:41:05;5.35;;;4.40;;
68176;SDS011;56478;50.982;7.032;2023-08-17T05:43:31;6.95;;;4.80;;
68176;SDS011;56478;50.982;7.032;2023-08-17T05:45:57;5.43;;;4.57;;
68176;SDS011;56478;50.982;7.032;2023-08-17T05:48:27;5.30;;;4.78;;
68176;SDS011;56478;50.982;7.032;2023-08-17T05:50:53;5.63;;;4.78;;
68176;SDS011;56478;50.982;7.032;2023-08-17T05:53:21;5.07;;;4.63;;
68176;SDS011;56478;50.982;7.032;2023-08-17T05:55:46;8.30;;;5.07;;
68176;SDS011;56478;50.982;7.032;2023-08-17T05:58:12;6.07;;;5.15;;
68176;SDS011;56478;50.982;7.032;2023-08-17T06:00:37;6.45;;;5.10;;
68176;SDS011;56478;50.982;7.032;2023-08-17T06:03:03;5.90;;;5.30;;
68176;SDS011;56478;50.982;7.032;2023-08-17T06:05:29;5.50;;;5.00;;
68176;SDS011;56478;50.982;7.032;2023-08-17T06:07:55;4.93;;;4.43;;
68176;SDS011;56478;50.982;7.032;2023-08-17T06:10:21;7.40;;;5.10;;
68176;SDS011;56478;50.982;7.032;2023-08-17T06:12:53;5.53;;;5.00;;
68176;SDS011;56478;50.982;7.032;2023-08-17T06:15:20;5.93;;;5.35;;
68176;SDS011;56478;50.982;7.032;2023-08-17T06:17:46;6.25;;;5.03;;
68176;SDS011;56478;50.982;7.032;2023-08-17T06:20:11;6.88;;;5.20;;
68176;SDS011;56478;50.982;7.032;2023-08-17T06:22:37;5.00;;;4.60;;
68176;SDS011;56478;50.982;7.032;2023-08-17T06:25:03;5.35;;;4.90;;
68176;SDS011;56478;50.982;7.032;2023-08-17T06:27:31;6.33;;;4.63;;
68176;SDS011;56478;50.982;7.032;2023-08-17T06:29:56;5.72;;;5.22;;
68176;SDS011;56478;50.982;7.032;2023-08-17T06:32:22;5.65;;;5.15;;
68176;SDS011;56478;50.982;7.032;2023-08-17T06:34:47;8.27;;;5.47;;
68176;SDS011;56478;50.982;7.032;2023-08-17T06:37:13;6.68;;;5.30;;
68176;SDS011;56478;50.982;7.032;2023-08-17T06:39:40;5.80;;;5.20;;
68176;SDS011;56478;50.982;7.032;2023-08-17T06:42:05;5.50;;;5.00;;
68176;SDS011;56478;50.982;7.032;2023-08-17T06:44:31;7.07;;;5.03;;
68176;SDS011;56478;50.982;7.032;2023-08-17T06:46:56;7.28;;;5.45;;
68176;SDS011;56478;50.982;7.032;2023-08-17T06:49:23;7.93;;;5.70;;
68176;SDS011;56478;50.982;7.032;2023-08-17T06:51:49;7.28;;;5.70;;
68176;SDS011;56478;50.982;7.032;2023-08-17T06:54:15;6.10;;;5.40;;
68176;SDS011;56478;50.982;7.032;2023-08-17T06:56:40;7.03;;;5.65;;
68176;SDS011;56478;50.982;7.032;2023-08-17T06:59:06;6.57;;;5.80;;
68176;SDS011;56478;50.982;7.032;2023-08-17T07:01:32;7.35;;;5.78;;
68176;SDS011;56478;50.982;7.032;2023-08-17T07:04:00;6.53;;;5.03;;
68176;SDS011;56478;50.982;7.032;2023-08-17T07:06:25;5.68;;;5.28;;
68176;SDS011;56478;50.982;7.032;2023-08-17T07:08:51;8.02;;;6.05;;
68176;SDS011;56478;50.982;7.032;2023-08-17T07:11:17;6.80;;;5.60;;
68176;SDS011;56478;50.982;7.032;2023-08-17T07:13:43;5.97;;;5.13;;
68176;SDS011;56478;50.982;7.032;2023-08-17T07:16:09;8.70;;;5.63;;
68176;SDS011;56478;50.982;7.032;2023-08-17T07:18:34;6.00;;;5.40;;
68176;SDS011;56478;50.982;7.032;2023-08-17T07:21:00;12.52;;;5.70;;
68176;SDS011;56478;50.982;7.032;2023-08-17T07:23:25;6.05;;;5.22;;
68176;SDS011;56478;50.982;7.032;2023-08-17T07:25:50;5.70;;;5.20;;
68176;SDS011;56478;50.982;7.032;2023-08-17T07:28:16;5.57;;;5.07;;
68176;SDS011;56478;50.982;7.032;2023-08-17T07:30:41;6.43;;;5.50;;
68176;SDS011;56478;50.982;7.032;2023-08-17T07:33:07;6.18;;;5.55;;
68176;SDS011;56478;50.982;7.032;2023-08-17T07:35:32;10.10;;;5.68;;
68176;SDS011;56478;50.982;7.032;2023-08-17T07:37:58;6.28;;;5.55;;
68176;SDS011;56478;50.982;7.032;2023-08-17T07:40:23;9.30;;;6.50;;
68176;SDS011;56478;50.982;7.032;2023-08-17T07:42:49;6.68;;;6.07;;
68176;SDS011;56478;50.982;7.032;2023-08-17T07:45:14;7.93;;;6.10;;
68176;SDS011;56478;50.982;7.032;2023-08-17T07:47:40;6.90;;;5.80;;
68176;SDS011;56478;50.982;7.032;2023-08-17T07:50:06;6.95;;;6.25;;
68176;SDS011;56478;50.982;7.032;2023-08-17T07:52:32;8.07;;;7.18;;
68176;SDS011;56478;50.982;7.032;2023-08-17T07:54:58;7.05;;;6.35;;
68176;SDS011;56478;50.982;7.032;2023-08-17T07:57:23;6.95;;;4.88;;
68176;SDS011;56478;50.982;7.032;2023-08-17T07:59:49;8.73;;;5.78;;
68176;SDS011;56478;50.982;7.032;2023-08-17T08:02:16;6.63;;;5.95;;
68176;SDS011;56478;50.982;7.032;2023-08-17T08:04:42;8.20;;;5.60;;
68176;SDS011;56478;50.982;7.032;2023-08-17T08:07:07;7.70;;;6.20;;
68176;SDS011;56478;50.982;7.032;2023-08-17T08:09:32;6.38;;;5.78;;
68176;SDS011;56478;50.982;7.032;2023-08-17T08:11:58;6.82;;;6.13;;
68176;SDS011;56478;50.982;7.032;2023-08-17T08:14:24;7.82;;;6.47;;
68176;SDS011;56478;50.982;7.032;2023-08-17T08:16:49;6.28;;;5.78;;
68176;SDS011;56478;50.982;7.032;2023-08-17T08:19:15;10.95;;;6.75;;
68176;SDS011;56478;50.982;7.032;2023-08-17T08:21:41;7.50;;;6.38;;
68176;SDS011;56478;50.982;7.032;2023-08-17T08:24:06;6.35;;;5.78;;
68176;SDS011;56478;50.982;7.032;2023-08-17T08:26:32;9.10;;;5.78;;
68176;SDS011;56478;50.982;7.032;2023-08-17T08:28:57;8.07;;;6.07;;
68176;SDS011;56478;50.982;7.032;2023-08-17T08:31:23;9.73;;;7.00;;
68176;SDS011;56478;50.982;7.032;2023-08-17T08:33:48;10.65;;;7.25;;
68176;SDS011;56478;50.982;7.032;2023-08-17T08:36:14;9.88;;;7.35;;
68176;SDS011;56478;50.982;7.032;2023-08-17T08:38:39;11.95;;;6.95;;
68176;SDS011;56478;50.982;7.032;2023-08-17T08:41:05;11.13;;;7.35;;
68176;SDS011;56478;50.982;7.032;2023-08-17T08:43:32;13.50;;;8.13;;
68176;SDS011;56478;50.982;7.032;2023-08-17T08:45:58;10.38;;;8.07;;
68176;SDS011;56478;50.982;7.032;2023-08-17T08:48:25;14.73;;;7.38;;
68176;SDS011;56478;50.982;7.032;2023-08-17T08:50:52;11.13;;;7.33;;
68176;SDS011;56478;50.982;7.032;2023-08-17T08:53:22;10.73;;;7.50;;
68176;SDS011;56478;50.982;7.032;2023-08-17T08:55:55;9.70;;;7.30;;
68176;SDS011;56478;50.982;7.032;2023-08-17T08:58:24;10.65;;;6.82;;
68176;SDS011;56478;50.982;7.032;2023-08-17T09:00:50;12.05;;;7.72;;
68176;SDS011;56478;50.982;7.032;2023-08-17T09:03:17;9.18;;;7.22;;
68176;SDS011;56478;50.982;7.032;2023-08-17T09:05:46;9.07;;;7.07;;
68176;SDS011;56478;50.982;7.032;2023-08-17T09:08:13;11.70;;;7.40;;
68176;SDS011;56478;50.982;7.032;2023-08-17T09:10:40;9.57;;;7.40;;
68176;SDS011;56478;50.982;7.032;2023-08-17T09:13:06;11.50;;;7.15;;
68176;SDS011;56478;50.982;7.032;2023-08-17T09:15:33;9.02;;;7.22;;
68176;SDS011;56478;50.982;7.032;2023-08-17T09:17:58;8.40;;;7.13;;
68176;SDS011;56478;50.982;7.032;2023-08-17T09:20:40;10.98;;;7.38;;
68176;SDS011;56478;50.982;7.032;2023-08-17T09:23:14;11.00;;;7.03;;
68176;SDS011;56478;50.982;7.032;2023-08-17T09:25:45;13.38;;;8.07;;
68176;SDS011;56478;50.982;7.032;2023-08-17T09:28:12;14.82;;;7.90;;
68176;SDS011;56478;50.982;7.032;2023-08-17T09:30:52;11.18;;;8.70;;
68176;SDS011;56478;50.982;7.032;2023-08-17T09:33:20;10.45;;;7.78;;
68176;SDS011;56478;50.982;7.032;2023-08-17T09:35:49;11.15;;;7.05;;
68176;SDS011;56478;50.982;7.032;2023-08-17T09:38:16;11.10;;;8.30;;
68176;SDS011;56478;50.982;7.032;2023-08-17T09:40:43;12.23;;;8.43;;
68176;SDS011;56478;50.982;7.032;2023-08-17T09:43:09;12.93;;;8.18;;
68176;SDS011;56478;50.982;7.032;2023-08-17T09:45:38;11.30;;;7.93;;
68176;SDS011;56478;50.982;7.032;2023-08-17T09:48:04;12.40;;;8.00;;
68176;SDS011;56478;50.982;7.032;2023-08-17T09:50:31;12.82;;;8.20;;
68176;SDS011;56478;50.982;7.032;2023-08-17T09:52:57;10.68;;;7.00;;
68176;SDS011;56478;50.982;7.032;2023-08-17T09:55:23;11.45;;;7.78;;
68176;SDS011;56478;50.982;7.032;2023-08-17T09:57:49;11.88;;;7.85;;
68176;SDS011;56478;50.982;7.032;2023-08-17T10:00:19;10.93;;;7.78;;
68176;SDS011;56478;50.982;7.032;2023-08-17T10:02:44;11.77;;;7.75;;
68176;SDS011;56478;50.982;7.032;2023-08-17T10:05:13;10.52;;;7.43;;
68176;SDS011;56478;50.982;7.032;2023-08-17T10:07:46;16.23;;;7.63;;
68176;SDS011;56478;50.982;7.032;2023-08-17T10:10:16;8.15;;;7.30;;
68176;SDS011;56478;50.982;7.032;2023-08-17T10:12:56;10.98;;;7.50;;
68176;SDS011;56478;50.982;7.032;2023-08-17T10:15:31;11.95;;;7.85;;
68176;SDS011;56478;50.982;7.032;2023-08-17T10:18:07;9.02;;;7.30;;
68176;SDS011;56478;50.982;7.032;2023-08-17T10:20:40;8.80;;;6.80;;
68176;SDS011;56478;50.982;7.032;2023-08-17T10:23:12;9.50;;;6.60;;
68176;SDS011;56478;50.982;7.032;2023-08-17T10:25:40;10.57;;;7.18;;
68176;SDS011;56478;50.982;7.032;2023-08-17T10:28:08;10.77;;;8.23;;
68176;SDS011;56478;50.982;7.032;2023-08-17T10:30:38;8.73;;;7.13;;
68176;SDS011;56478;50.982;7.032;2023-08-17T10:33:05;8.82;;;7.53;;
68176;SDS011;56478;50.982;7.032;2023-08-17T10:35:31;9.77;;;7.78;;
68176;SDS011;56478;50.982;7.032;2023-08-17T10:37:58;13.07;;;7.40;;
68176;SDS011;56478;50.982;7.032;2023-08-17T10:40:27;9.65;;;6.93;;
68176;SDS011;56478;50.982;7.032;2023-08-17T10:42:54;9.32;;;7.55;;
68176;SDS011;56478;50.982;7.032;2023-08-17T10:47:59;8.35;;;7.50;;
68176;SDS011;56478;50.982;7.032;2023-08-17T10:50:37;13.70;;;7.93;;
68176;SDS011;56478;50.982;7.032;2023-08-17T10:53:04;12.02;;;7.20;;
68176;SDS011;56478;50.982;7.032;2023-08-17T10:55:35;10.43;;;6.75;;
68176;SDS011;56478;50.982;7.032;2023-08-17T10:58:07;13.02;;;7.40;;
68176;SDS011;56478;50.982;7.032;2023-08-17T11:00:37;8.10;;;7.30;;
68176;SDS011;56478;50.982;7.032;2023-08-17T11:03:04;8.48;;;6.93;;
68176;SDS011;56478;50.982;7.032;2023-08-17T11:05:45;10.77;;;7.18;;
68176;SDS011;56478;50.982;7.032;2023-08-17T11:11:17;8.07;;;7.30;;
68176;SDS011;56478;50.982;7.032;2023-08-17T11:13:45;7.70;;;6.15;;
68176;SDS011;56478;50.982;7.032;2023-08-17T11:16:13;8.20;;;6.95;;
68176;SDS011;56478;50.982;7.032;2023-08-17T11:18:40;11.00;;;6.50;;
68176;SDS011;56478;50.982;7.032;2023-08-17T11:21:06;7.93;;;6.53;;
68176;SDS011;56478;50.982;7.032;2023-08-17T11:23:34;7.82;;;6.53;;
68176;SDS011;56478;50.982;7.032;2023-08-17T11:26:01;6.93;;;5.80;;
68176;SDS011;56478;50.982;7.032;2023-08-17T11:28:29;6.53;;;5.93;;
68176;SDS011;56478;50.982;7.032;2023-08-17T11:31:01;10.90;;;6.60;;
68176;SDS011;56478;50.982;7.032;2023-08-17T11:33:28;6.90;;;6.18;;
68176;SDS011;56478;50.982;7.032;2023-08-17T11:35:56;7.50;;;5.88;;
68176;SDS011;56478;50.982;7.032;2023-08-17T11:38:22;7.15;;;6.45;;
68176;SDS011;56478;50.982;7.032;2023-08-17T11:40:48;6.10;;;5.47;;
68176;SDS011;56478;50.982;7.032;2023-08-17T11:43:14;6.53;;;5.20;;
68176;SDS011;56478;50.982;7.032;2023-08-17T11:45:40;6.55;;;5.95;;
68176;SDS011;56478;50.982;7.032;2023-08-17T11:48:06;10.13;;;6.10;;
68176;SDS011;56478;50.982;7.032;2023-08-17T11:50:32;6.50;;;5.90;;
68176;SDS011;56478;50.982;7.032;2023-08-17T11:53:01;9.15;;;7.00;;
68176;SDS011;56478;50.982;7.032;2023-08-17T11:55:27;6.18;;;5.57;;
68176;SDS011;56478;50.982;7.032;2023-08-17T11:57:52;7.28;;;4.97;;
68176;SDS011;56478;50.982;7.032;2023-08-17T12:00:20;5.95;;;4.70;;
68176;SDS011;56478;50.982;7.032;2023-08-17T12:02:47;5.63;;;4.80;;
68176;SDS011;56478;50.982;7.032;2023-08-17T12:05:22;5.03;;;4.63;;
68176;SDS011;56478;50.982;7.032;2023-08-17T12:07:55;7.70;;;5.18;;
68176;SDS011;56478;50.982;7.032;2023-08-17T12:10:21;5.82;;;5.07;;
68176;SDS011;56478;50.982;7.032;2023-08-17T12:12:49;9.25;;;5.38;;
68176;SDS011;56478;50.982;7.032;2023-08-17T12:15:18;6.30;;;4.97;;
68176;SDS011;56478;50.982;7.032;2023-08-17T12:17:48;5.80;;;4.97;;
68176;SDS011;56478;50.982;7.032;2023-08-17T12:20:17;6.38;;;5.20;;
68176;SDS011;56478;50.982;7.032;2023-08-17T12:22:44;6.93;;;5.20;;
68176;SDS011;56478;50.982;7.032;2023-08-17T12:25:13;7.65;;;5.65;;
68176;SDS011;56478;50.982;7.032;2023-08-17T12:27:39;8.32;;;5.32;;
68176;SDS011;56478;50.982;7.032;2023-08-17T12:30:11;7.55;;;4.63;;
68176;SDS011;56478;50.982;7.032;2023-08-17T12:32:38;5.13;;;4.72;;
68176;SDS011;56478;50.982;7.032;2023-08-17T12:35:04;5.25;;;4.82;;
68176;SDS011;56478;50.982;7.032;2023-08-17T12:37:30;5.40;;;4.90;;
68176;SDS011;56478;50.982;7.032;2023-08-17T12:39:55;7.70;;;4.57;;
68176;SDS011;56478;50.982;7.032;2023-08-17T12:42:21;7.00;;;4.88;;
68176;SDS011;56478;50.982;7.032;2023-08-17T12:44:46;7.10;;;5.32;;
68176;SDS011;56478;50.982;7.032;2023-08-17T12:47:11;6.93;;;5.32;;
68176;SDS011;56478;50.982;7.032;2023-08-17T12:49:37;5.32;;;4.85;;
68176;SDS011;56478;50.982;7.032;2023-08-17T12:52:03;7.63;;;4.88;;
68176;SDS011;56478;50.982;7.032;2023-08-17T12:54:28;6.38;;;5.40;;
68176;SDS011;56478;50.982;7.032;2023-08-17T12:56:54;6.10;;;5.50;;
68176;SDS011;56478;50.982;7.032;2023-08-17T12:59:19;5.47;;;4.95;;
68176;SDS011;56478;50.982;7.032;2023-08-17T13:01:45;5.40;;;4.90;;
68176;SDS011;56478;50.982;7.032;2023-08-17T13:04:10;6.30;;;5.32;;
68176;SDS011;56478;50.982;7.032;2023-08-17T13:06:36;7.50;;;5.75;;
68176;SDS011;56478;50.982;7.032;2023-08-17T13:09:03;6.07;;;5.50;;
68176;SDS011;56478;50.982;7.032;2023-08-17T13:11:28;6.70;;;5.30;;
68176;SDS011;56478;50.982;7.032;2023-08-17T13:13:54;8.35;;;6.25;;
68176;SDS011;56478;50.982;7.032;2023-08-17T13:16:19;9.95;;;6.60;;
68176;SDS011;56478;50.982;7.032;2023-08-17T13:21:13;8.68;;;7.28;;
68176;SDS011;56478;50.982;7.032;2023-08-17T13:23:40;9.23;;;7.22;;
68176;SDS011;56478;50.982;7.032;2023-08-17T13:26:06;7.07;;;6.47;;
68176;SDS011;56478;50.982;7.032;2023-08-17T13:28:33;8.77;;;6.30;;
68176;SDS011;56478;50.982;7.032;2023-08-17T13:30:58;8.57;;;6.10;;
68176;SDS011;56478;50.982;7.032;2023-08-17T13:33:24;6.47;;;5.85;;
68176;SDS011;56478;50.982;7.032;2023-08-17T13:35:49;7.43;;;5.93;;
68176;SDS011;56478;50.982;7.032;2023-08-17T13:38:16;8.75;;;6.28;;
68176;SDS011;56478;50.982;7.032;2023-08-17T13:40:42;8.27;;;6.70;;
68176;SDS011;56478;50.982;7.032;2023-08-17T13:43:07;11.40;;;6.15;;
68176;SDS011;56478;50.982;7.032;2023-08-17T13:45:37;12.68;;;6.43;;
68176;SDS011;56478;50.982;7.032;2023-08-17T13:48:04;7.03;;;6.07;;
68176;SDS011;56478;50.982;7.032;2023-08-17T13:50:30;8.35;;;5.65;;
68176;SDS011;56478;50.982;7.032;2023-08-17T13:52:55;6.30;;;5.68;;
68176;SDS011;56478;50.982;7.032;2023-08-17T13:55:21;9.68;;;6.00;;
68176;SDS011;56478;50.982;7.032;2023-08-17T13:57:46;6.57;;;5.63;;
68176;SDS011;56478;50.982;7.032;2023-08-17T14:00:12;7.80;;;6.00;;
68176;SDS011;56478;50.982;7.032;2023-08-17T14:02:38;6.88;;;5.78;;
68176;SDS011;56478;50.982;7.032;2023-08-17T14:05:04;6.53;;;5.90;;
68176;SDS011;56478;50.982;7.032;2023-08-17T14:07:30;7.95;;;6.03;;
68176;SDS011;56478;50.982;7.032;2023-08-17T14:09:55;6.32;;;5.47;;
68176;SDS011;56478;50.982;7.032;2023-08-17T14:12:21;6.50;;;5.80;;
68176;SDS011;56478;50.982;7.032;2023-08-17T14:14:46;6.65;;;5.85;;
68176;SDS011;56478;50.982;7.032;2023-08-17T14:17:11;10.60;;;5.82;;
68176;SDS011;56478;50.982;7.032;2023-08-17T14:19:37;6.15;;;5.30;;
68176;SDS011;56478;50.982;7.032;2023-08-17T14:22:02;9.52;;;6.18;;
68176;SDS011;56478;50.982;7.032;2023-08-17T14:24:28;7.07;;;5.40;;
68176;SDS011;56478;50.982;7.032;2023-08-17T14:26:54;6.22;;;5.63;;
68176;SDS011;56478;50.982;7.032;2023-08-17T14:29:21;6.97;;;5.68;;
68176;SDS011;56478;50.982;7.032;2023-08-17T14:31:47;8.90;;;5.85;;
68176;SDS011;56478;50.982;7.032;2023-08-17T14:34:13;6.07;;;5.53;;
68176;SDS011;56478;50.982;7.032;2023-08-17T14:36:40;7.57;;;5.45;;
68176;SDS011;56478;50.982;7.032;2023-08-17T14:39:05;5.53;;;4.85;;
68176;SDS011;56478;50.982;7.032;2023-08-17T14:41:31;7.30;;;5.00;;
68176;SDS011;56478;50.982;7.032;2023-08-17T14:43:58;6.28;;;5.22;;
68176;SDS011;56478;50.982;7.032;2023-08-17T14:46:24;8.65;;;5.70;;
68176;SDS011;56478;50.982;7.032;2023-08-17T14:48:50;8.00;;;5.20;;
68176;SDS011;56478;50.982;7.032;2023-08-17T14:51:15;9.38;;;4.93;;
68176;SDS011;56478;50.982;7.032;2023-08-17T14:53:41;10.10;;;5.25;;